sim
Sign-in with your pilot id or email,
or register
Callsign
Passwort

Schedule Details

Flight Number: DLH766
Departure: Munich Airport (EDDM) at 10:10
Arrival: Mumbai Chhatrapati Shivaji International Airport (VABB) at 18:25
Route: Lufthansa Passenger Schedule. Enter filed route here before submitting Pirep.

Weather Information
Getting current METAR information for EDDM 152220Z 14004KT 9999 FEW034 06/04 Q1013 NOSIG
Getting current METAR information for VABB 152230Z 36004KT 2100 HZ NSC 24/20 Q1011 NOSIG

Schedule Frequency

Route Map